Eastport Municipal Airport (EPM)
Eastport, ME
Field Elevation: 45
Lat: 44°54.60N  Long: 67°00.76W
CTAF/Unicom Freq: 122.8000
   
     For Weather-by-Phone, call 207-853-0682
Weather Advisories
2017-10-18   16:37 Z
Altimeter 30.10" Hg
Wind 300° @ 12 KT
Gusts 21 KT
Visibility 10 SM
Temperature 17° C (63° F)
Dewpoint 4° C (39° F)
Relative Humidity 41%
Density Altitude --
Condensation Altitude 6,400 feet
Wind and Runways
Indicated Runway = 33
Headwind = 10 kt
Crosswind = 6 kt
History
 
 
 
More Info
NOAA Forecast
 
 
About Us
Belfort Instrument
 
 
FAA Disclaimer: The data displayed is for advisory purposes only and is not to be used for flight planning or operations. For official data, please call 207-853-0682 to hear the current automated AWOS voice message.
  METAR EPM 181637Z AUTO 30012G21KT 10 SM 17/04 A3010